• Join FlightAware (Why Join?)
  • Login
  • US Flag 
07:21PM EDT


 

Airport Tracker/Info


-or-


 

Live Flight TrackerFlight Track Log ✈ AAL2345 ✈ 14-Jul-2013 ✈ KORD - KDFW

Flight Track Log - Related Links

Times and Time Zones

All times are in EDT time to prevent confusion due to time zone crossing. See the AAL2345 flight status page for this flight to view local times or setup timezone preferences in your user account.

Time Position Orientation Groundspeed Altitude Reporting Facility
EDT Latitude Longitude Course Direction KTS MPH feet Rate Location/Type
07:01PM 41.9000 -87.9500 194° South 191 220 3,600  Level Chicago TRACON
07:02PM 41.8214 -88.0181 213° Southwest 247 284 6,000 2,040 Climbing Chicago Center
07:03PM 41.6474 -88.3012 197° South  Level Estimated
07:03PM 41.7489 -88.0436 195° South 268 308 8,900  Level Chicago Center
07:04PM 41.5490 -88.2316 152° Southeast  Level FlightAware Approximate
07:04PM 41.6750 -88.0728 196° South 276 318 11,600  Level Chicago Center
07:05PM 41.4660 -88.3305 207° Southwest  Level Estimated
07:05PM 41.5789 -88.1108 196° South 303 349 13,400  Level Chicago Center
07:06PM 41.3821 -88.4301 194° South  Level Estimated
07:06PM 41.4878 -88.1481 197° South 347 399 15,100  Level Chicago Center
07:07PM 41.3933 -88.1869 197° South 370 426 17,100 1,920 Climbing Chicago Center
07:08PM 41.2744 -88.2403 199° South 382 440 19,100 1,740 Climbing Chicago Center
07:09PM 41.1719 -88.2853 198° South 389 448 20,800 1,560 Climbing Chicago Center
07:10PM 41.0661 -88.3342 199° South 400 460 22,400 1,440 Climbing Chicago Center
07:12PM 40.9583 -88.3814 198° South 408 470 23,900 1,380 Climbing Chicago Center
07:13PM 40.8517 -88.4419 203° Southwest 421 484 25,300 1,260 Climbing Chicago Center
07:14PM 40.7347 -88.5542 216° Southwest 434 499 26,600 1,080 Climbing Chicago Center
07:15PM 40.6322 -88.6403 213° Southwest 437 503 27,600 960 Climbing Chicago Center
07:16PM 40.5269 -88.7289 213° Southwest 444 511 28,600 1,080 Climbing Chicago Center
07:17PM 40.4194 -88.8217 213° Southwest 453 521 29,900 1,200 Climbing Chicago Center
07:18PM 40.3125 -88.9114 213° Southwest 456 525 31,100 960 Climbing Chicago Center
07:19PM 40.2072 -89.0006 213° Southwest 451 519 32,000 420 Climbing Chicago Center
07:20PM 40.0797 -89.1075 213° Southwest 453 521 32,000  Level Chicago Center
07:21PM 39.9756 -89.1964 213° Southwest 447 514 32,000  Level Chicago Center
07:22PM 39.8908 -89.2658 212° Southwest 446 513 32,000  Level Kansas City Center
07:23PM 39.7850 -89.3531 212° Southwest 447 514 32,000  Level Kansas City Center
07:24PM 39.6744 -89.4450 213° Southwest 446 513 32,000  Level Kansas City Center
07:25PM 39.5692 -89.5275 211° Southwest 445 512 32,000  Level Kansas City Center
07:26PM 39.4636 -89.6108 211° Southwest 444 511 32,000  Level Kansas City Center
07:27PM 39.3597 -89.6942 212° Southwest 441 507 32,000  Level Kansas City Center
07:28PM 39.2550 -89.7769 211° Southwest 441 507 32,000  Level Kansas City Center
07:29PM 39.1336 -89.8808 214° Southwest 436 502 32,000  Level Kansas City Center
07:30PM 39.0239 -89.9692 212° Southwest 435 501 32,000  Level Kansas City Center
07:31PM 38.9286 -90.0447 212° Southwest 438 504 32,000  Level Kansas City Center
07:32PM 38.8342 -90.1256 214° Southwest 431 496 32,000  Level Kansas City Center
07:33PM 38.7336 -90.2658 227° Southwest 440 506 32,000  Level Kansas City Center
07:34PM 38.6514 -90.3883 229° Southwest 449 517 32,000  Level Kansas City Center
07:35PM 38.5683 -90.5067 228° Southwest 447 514 32,000  Level Kansas City Center
07:36PM 38.4828 -90.6267 228° Southwest 458 527 32,000  Level Kansas City Center
07:37PM 38.4061 -90.7356 228° Southwest 447 514 32,000  Level Kansas City Center
07:38PM 38.3067 -90.8761 228° Southwest 443 510 32,000  Level Kansas City Center
07:39PM 38.2228 -90.9928 228° Southwest 445 512 32,000  Level Kansas City Center
07:40PM 38.1325 -91.1200 228° Southwest 445 512 32,000  Level Kansas City Center
07:41PM 38.0486 -91.2369 228° Southwest 446 513 32,000  Level Kansas City Center
07:42PM 37.9633 -91.3550 228° Southwest 450 518 32,000  Level Kansas City Center
07:43PM 37.8792 -91.4756 229° Southwest 453 521 32,000  Level Kansas City Center
07:44PM 37.7925 -91.5942 227° Southwest 456 525 32,000  Level Kansas City Center
07:45PM 37.7072 -91.7117 227° Southwest 452 520 32,000  Level Kansas City Center
07:46PM 37.6225 -91.8303 228° Southwest 451 519 32,000  Level Kansas City Center
07:48PM 37.5189 -91.9736 228° Southwest 455 524 32,000  Level Kansas City Center
07:49PM 37.4306 -92.0844 225° Southwest 447 514 32,000  Level Kansas City Center
07:50PM 37.3647 -92.2267 240° Southwest 457 526 32,000  Level Kansas City Center
07:51PM 37.3011 -92.3719 241° Southwest 467 537 32,000  Level Kansas City Center
07:52PM 37.2256 -92.4994 233° Southwest 457 526 32,000  Level Kansas City Center
07:53PM 37.1281 -92.5933 218° Southwest 439 505 32,000  Level Kansas City Center
07:54PM 37.0314 -92.6875 218° Southwest 438 504 32,000  Level Kansas City Center
07:55PM 36.9339 -92.7825 218° Southwest 440 506 32,000  Level Kansas City Center
07:56PM 36.8194 -92.8950 218° Southwest 437 503 32,000  Level Kansas City Center
07:57PM 36.7236 -92.9881 218° Southwest 435 501 32,000  Level Kansas City Center
07:58PM 36.6297 -93.0808 218° Southwest 433 498 32,000  Level Kansas City Center
07:59PM 36.5294 -93.1778 218° Southwest 433 498 32,000 300 Level Kansas City Center
08:00PM 36.4339 -93.2731 219° Southwest 439 505 32,700 720 Climbing Kansas City Center
08:01PM 36.3400 -93.3642 218° Southwest 434 499 33,600 600 Climbing Kansas City Center
08:02PM 36.2389 -93.4603 217° Southwest 448 516 34,000 180 Climbing Memphis Center
08:03PM 36.1447 -93.5544 219° Southwest 448 516 34,000  Level Memphis Center
08:04PM 36.0508 -93.6431 217° Southwest 448 516 34,000  Level Memphis Center
08:05PM 35.9567 -93.7317 217° Southwest 448 516 34,000  Level Memphis Center
08:06PM 35.8603 -93.8250 218° Southwest 448 516 34,000  Level Memphis Center
08:07PM 35.7658 -93.9158 218° Southwest 448 516 34,000  Level Memphis Center
08:08PM 35.6672 -94.0086 217° Southwest 448 516 34,000  Level Memphis Center
08:09PM 35.5686 -94.1014 217° Southwest 455 524 34,000  Level Memphis Center
08:10PM 35.4719 -94.1914 217° Southwest 450 518 34,000  Level Memphis Center
08:11PM 35.3753 -94.2836 218° Southwest 450 518 34,000  Level Memphis Center
08:12PM 35.2847 -94.3811 221° Southwest 450 518 34,000  Level Memphis Center
08:14PM 35.1094 -94.5811 223° Southwest 450 518 34,000  Level Fort Worth Center
08:15PM 35.0178 -94.6781 221° Southwest 450 518 34,000  Level Fort Worth Center
08:16PM 34.9239 -94.7800 222° Southwest 450 518 34,000  Level Fort Worth Center
08:17PM 34.8281 -94.8789 220° Southwest 458 527 34,000 -960 Level Fort Worth Center
08:18PM 34.7119 -94.9253 198° South 430 495 32,100 -1,680 Descending Fort Worth Center
08:19PM 34.5947 -94.9061 172° South 419 482 30,700 -1,560 Descending Fort Worth Center
08:20PM 34.4881 -94.8864 171° South 404 465 29,000 -1,680 Descending Fort Worth Center
08:21PM 34.3792 -94.8722 174° South 399 459 27,400 -1,740 Descending Fort Worth Center
08:22PM 34.2767 -94.8575 173° South 386 444 25,600 -1,500 Descending Fort Worth Center
08:23PM 34.1806 -94.8503 176° South 372 428 24,400 -840 Descending Fort Worth Center
08:24PM 34.1200 -94.9450 232° Southwest 317 365 24,000 -240 Descending Fort Worth Center
08:25PM 34.0739 -95.0514 242° Southwest 336 387 24,000  Level Fort Worth Center
08:26PM 34.0300 -95.1556 243° Southwest 341 392 24,000  Level Fort Worth Center
08:27PM 33.9839 -95.2594 242° Southwest 351 404 24,000 -180 Level Fort Worth Center
08:28PM 33.9356 -95.3631 241° Southwest 357 411 23,700 -600 Descending Fort Worth Center
08:29PM 33.8869 -95.4694 241° Southwest 357 411 22,800 -1,200 Descending Fort Worth Center
08:30PM 33.8406 -95.5706 241° Southwest 357 411 21,300 -1,620 Descending Fort Worth Center
08:31PM 33.7981 -95.6664 242° Southwest 345 397 19,600 -1,860 Descending Fort Worth Center
08:32PM 33.7556 -95.7594 241° Southwest 340 391 17,600 -1,920 Descending Fort Worth Center
08:33PM 33.7108 -95.8603 242° Southwest 335 386 15,800 -1,680 Descending Fort Worth Center
08:34PM 33.6661 -95.9508 239° Southwest 329 379 14,300 -1,620 Descending Fort Worth Center
08:35PM 33.6253 -96.0439 242° Southwest 315 362 12,600 -1,500 Descending Fort Worth Center
08:36PM 33.5867 -96.1269 241° Southwest 315 362 11,300 -840 Descending Fort Worth Center
08:37PM 33.5311 -96.2075 230° Southwest 307 353 11,000 -180 Descending Fort Worth Center
08:38PM 33.4858 -96.2753 231° Southwest 293 337 11,000  Level Fort Worth Center
08:39PM 33.4300 -96.3556 230° Southwest 299 344 11,000 -240 Level Fort Worth Center
08:40PM 33.3806 -96.4233 229° Southwest 299 344 10,600 -1,080 Descending Fort Worth Center
08:41PM 33.3144 -96.4986 224° Southwest 304 350 8,900 -1,800 Descending Fort Worth Center
08:42PM 33.2817 -96.5833 245° Southwest 287 330 7,000 -1,800 Descending Fort Worth Center
08:43PM 33.2611 -96.6606 252° West 281 323 5,400 -1,020 Descending Fort Worth Center
08:44PM 33.2325 -96.7578 251° West 281 323 5,000 -240 Descending Fort Worth Center
08:45PM 33.2078 -96.8350 249° West 281 323 5,000 -420 Level Fort Worth Center
08:46PM 33.1747 -96.9319 248° West 291 335 4,200 -1,020 Descending Fort Worth Center
08:47PM 33.1333 -96.9967 233° Southwest 280 322 3,000 -660 Descending Fort Worth Center
08:48PM 33.0769 -97.0267 204° Southwest 207 238 2,900 -120 Descending Fort Worth Center